createdAt,value
2023-05-14T00:00:33.478Z,9.50
2023-05-14T00:02:33.551Z,9.40
2023-05-14T00:04:33.526Z,9.40
2023-05-14T00:06:33.471Z,9.40
2023-05-14T00:08:33.407Z,9.40
2023-05-14T00:10:33.357Z,9.40
2023-05-14T00:12:33.398Z,9.40
2023-05-14T00:14:33.356Z,9.40
2023-05-14T00:16:33.377Z,9.40
2023-05-14T00:18:33.870Z,9.40
2023-05-14T00:20:33.342Z,9.50
2023-05-14T00:22:33.609Z,9.40
2023-05-14T00:24:33.526Z,9.40
2023-05-14T00:26:33.481Z,9.40
2023-05-14T00:28:33.387Z,9.40
2023-05-14T12:12:14.225Z,16.20
2023-05-14T12:14:10.847Z,16.20
2023-05-14T12:16:11.053Z,16.00
2023-05-14T12:18:22.836Z,16.00
2023-05-14T12:20:10.767Z,15.80
2023-05-14T12:22:10.746Z,15.40
2023-05-14T12:24:10.731Z,15.20
2023-05-14T12:26:10.716Z,15.20
2023-05-14T12:28:10.780Z,15.20
2023-05-14T12:30:20.773Z,15.80
2023-05-14T12:32:10.948Z,16.50
2023-05-14T12:34:10.798Z,17.00
2023-05-14T12:36:21.429Z,17.00
2023-05-14T12:38:10.864Z,17.60
2023-05-14T12:40:10.936Z,18.20
2023-05-14T12:42:10.917Z,18.20
2023-05-14T12:44:10.781Z,18.30
2023-05-14T12:46:10.830Z,18.30
2023-05-14T12:48:13.754Z,17.80
2023-05-14T12:50:11.116Z,17.60
2023-05-14T12:54:10.893Z,17.50
2023-05-14T12:56:11.135Z,17.50
2023-05-14T12:58:10.887Z,17.50
2023-05-14T13:00:12.892Z,16.10
2023-05-14T13:02:12.101Z,16.10
2023-05-14T13:04:10.919Z,16.10
2023-05-14T13:06:10.922Z,16.10
2023-05-14T13:08:10.792Z,16.10
2023-05-14T13:10:11.132Z,16.10
2023-05-14T13:12:11.027Z,16.30
2023-05-14T13:14:10.871Z,16.30
2023-05-14T13:16:15.255Z,16.30
2023-05-14T13:18:10.802Z,15.50
2023-05-14T13:20:10.873Z,15.50
2023-05-14T13:22:10.817Z,15.50
2023-05-14T13:24:11.090Z,15.40
2023-05-14T13:26:10.730Z,15.40
2023-05-14T13:28:10.844Z,15.40
2023-05-14T13:30:10.955Z,15.70
2023-05-14T13:32:11.050Z,15.70
2023-05-14T13:34:10.978Z,15.70
2023-05-14T13:36:10.834Z,15.60
2023-05-14T13:38:10.828Z,15.50
2023-05-14T13:40:10.826Z,15.50
2023-05-14T13:42:11.133Z,15.50
2023-05-14T13:44:11.012Z,15.50
2023-05-14T13:46:11.045Z,15.50
2023-05-14T13:48:12.473Z,15.50
2023-05-14T13:50:10.834Z,15.70
2023-05-14T13:52:11.373Z,15.70
2023-05-14T13:54:10.858Z,15.70
2023-05-14T13:56:10.904Z,16.70
2023-05-14T13:58:10.823Z,16.90
2023-05-14T14:00:10.835Z,16.90
2023-05-14T14:02:10.804Z,17.00
2023-05-14T14:04:10.824Z,17.00
2023-05-14T14:06:11.039Z,17.40
2023-05-14T14:08:22.480Z,17.40
2023-05-14T14:10:10.868Z,17.40
2023-05-14T14:12:10.887Z,17.50
2023-05-14T14:14:11.132Z,17.40
2023-05-14T14:16:10.924Z,16.40
2023-05-14T14:18:14.415Z,15.60
2023-05-14T14:20:11.349Z,15.60
2023-05-14T14:22:11.385Z,15.10
2023-05-14T14:24:10.811Z,15.00
2023-05-14T14:26:11.150Z,15.00
2023-05-14T14:28:10.962Z,15.00
2023-05-14T14:30:13.588Z,15.00
2023-05-14T14:33:10.858Z,15.20
2023-05-14T14:35:10.958Z,15.70
2023-05-14T14:36:15.016Z,16.30
2023-05-14T14:39:11.166Z,16.80
2023-05-14T14:41:11.036Z,16.80
2023-05-14T14:43:11.207Z,16.80
2023-05-14T14:45:13.364Z,16.20
2023-05-14T14:47:10.993Z,16.50
2023-05-14T14:49:14.096Z,16.20
2023-05-14T14:51:11.071Z,15.70
2023-05-14T14:53:10.875Z,15.70
2023-05-14T14:55:10.976Z,15.30
2023-05-14T14:57:11.143Z,15.00
2023-05-14T14:59:10.934Z,15.00
2023-05-14T15:01:11.009Z,15.00
2023-05-14T15:03:11.036Z,15.10
2023-05-14T15:05:10.981Z,15.00
2023-05-14T15:07:11.219Z,14.80
2023-05-14T15:09:11.024Z,14.80
2023-05-14T15:11:10.951Z,14.80
2023-05-14T15:13:10.902Z,14.80
2023-05-14T15:15:11.030Z,15.00
2023-05-14T15:17:11.080Z,15.00
2023-05-14T15:19:11.036Z,15.00
2023-05-14T15:21:11.095Z,15.00
2023-05-14T15:23:10.948Z,15.00
2023-05-14T15:25:11.086Z,15.00
2023-05-14T15:27:11.015Z,15.20
2023-05-14T15:29:11.049Z,15.20
2023-05-14T15:31:11.052Z,15.20
2023-05-14T15:33:11.041Z,15.00
2023-05-14T15:35:10.996Z,14.80
2023-05-14T15:37:10.965Z,14.70
2023-05-14T15:39:10.885Z,14.70
2023-05-14T15:41:13.829Z,14.70
2023-05-14T15:43:11.021Z,14.70
2023-05-14T15:45:10.882Z,14.60
2023-05-14T15:47:10.869Z,14.60
2023-05-14T15:49:10.965Z,14.60
2023-05-14T15:51:14.459Z,14.60
2023-05-14T15:53:11.007Z,14.50
2023-05-14T15:55:11.049Z,14.50
2023-05-14T15:57:10.962Z,14.50
2023-05-14T15:59:10.902Z,14.60
2023-05-14T16:01:11.033Z,14.90
2023-05-14T16:03:11.006Z,15.00
2023-05-14T16:05:11.137Z,15.30
2023-05-14T16:07:11.180Z,15.30
2023-05-14T16:09:10.934Z,15.20
2023-05-14T16:11:11.088Z,15.30
2023-05-14T16:13:11.043Z,15.40
2023-05-14T16:15:11.325Z,15.60
2023-05-14T16:17:11.360Z,15.60
2023-05-14T16:19:11.007Z,15.70
2023-05-14T16:21:11.051Z,15.80
2023-05-14T16:23:10.913Z,16.00
2023-05-14T16:25:10.948Z,16.00
2023-05-14T16:27:14.583Z,16.00
2023-05-14T16:29:10.905Z,15.90
2023-05-14T16:31:10.950Z,15.90
2023-05-14T16:33:10.999Z,15.90
2023-05-14T16:35:11.022Z,15.90
2023-05-14T16:37:12.551Z,15.70
2023-05-14T16:39:11.016Z,15.70
2023-05-14T16:41:11.121Z,15.70
2023-05-14T16:43:10.987Z,15.60
2023-05-14T16:45:11.309Z,15.60
2023-05-14T16:47:11.157Z,15.50
2023-05-14T16:49:11.124Z,15.30
2023-05-14T16:51:10.972Z,15.20
2023-05-14T16:53:11.320Z,15.20
2023-05-14T16:55:14.084Z,15.20
2023-05-14T16:57:11.282Z,15.10
2023-05-14T16:59:11.162Z,15.10
2023-05-14T17:01:11.162Z,15.00
2023-05-14T17:03:11.108Z,15.00
2023-05-14T17:05:11.137Z,15.00
2023-05-14T17:07:11.003Z,15.00
2023-05-14T17:09:11.038Z,15.20
2023-05-14T17:11:10.949Z,15.20
2023-05-14T17:13:11.021Z,15.20
2023-05-14T17:15:11.010Z,15.40
2023-05-14T17:17:10.994Z,15.30
2023-05-14T17:19:11.212Z,15.20
2023-05-14T17:21:11.817Z,15.20
2023-05-14T17:23:11.015Z,15.20
2023-05-14T17:25:23.074Z,15.20
2023-05-14T17:27:11.205Z,15.20
2023-05-14T17:29:11.077Z,15.20
2023-05-14T17:31:11.024Z,15.20
2023-05-14T17:33:11.001Z,15.40
2023-05-14T17:35:13.503Z,15.60
2023-05-14T17:37:10.969Z,15.70
2023-05-14T17:39:11.320Z,15.80
2023-05-14T17:41:11.052Z,15.80
2023-05-14T17:43:11.044Z,16.00
2023-05-14T17:45:11.171Z,15.70
2023-05-14T17:47:11.026Z,15.70
2023-05-14T17:49:11.003Z,15.60
2023-05-14T17:51:11.025Z,15.60
2023-05-14T17:53:11.050Z,15.60
2023-05-14T17:55:11.896Z,15.50
2023-05-14T17:57:11.458Z,15.40
2023-05-14T17:59:15.764Z,15.40
2023-05-14T18:01:14.372Z,15.40
2023-05-14T18:03:20.379Z,15.20
2023-05-14T18:05:11.437Z,15.00
2023-05-14T18:07:11.315Z,15.00
2023-05-14T18:09:20.372Z,15.00
2023-05-14T18:11:14.203Z,14.90
2023-05-14T18:13:15.294Z,14.80
2023-05-14T18:15:31.227Z,14.70
2023-05-14T18:17:14.676Z,14.60
2023-05-14T18:19:18.626Z,14.60
2023-05-14T18:21:20.414Z,14.60
2023-05-14T18:23:20.190Z,14.40
2023-05-14T18:25:18.610Z,14.40
2023-05-14T18:27:41.376Z,14.40
2023-05-14T18:29:35.973Z,14.20
2023-05-14T18:31:41.927Z,14.10
2023-05-14T18:33:30.470Z,14.10
2023-05-14T18:35:29.582Z,13.90
2023-05-14T18:37:29.846Z,13.90
2023-05-14T18:39:27.011Z,13.80
2023-05-14T18:41:29.610Z,13.60
2023-05-14T18:43:35.886Z,13.50
2023-05-14T18:45:41.303Z,13.40
2023-05-14T18:47:26.989Z,13.40
2023-05-14T18:49:38.944Z,13.50
2023-05-14T18:51:42.395Z,13.50
2023-05-14T18:53:35.872Z,13.40
2023-05-14T18:55:27.354Z,13.40
2023-05-14T18:57:33.001Z,13.40
2023-05-14T18:59:41.315Z,13.30
2023-05-14T19:01:32.956Z,13.40
2023-05-14T19:03:27.507Z,13.20
2023-05-14T19:05:29.776Z,13.20
2023-05-14T19:07:30.022Z,13.20
2023-05-14T19:09:27.059Z,13.10
2023-05-14T19:11:27.009Z,13.00
2023-05-14T19:13:41.311Z,13.00
2023-05-14T19:15:27.421Z,13.00
2023-05-14T19:17:27.245Z,12.80
2023-05-14T19:19:27.063Z,12.70
2023-05-14T19:21:33.359Z,12.60
2023-05-14T19:23:41.269Z,12.50
2023-05-14T19:25:28.520Z,12.50
2023-05-14T19:28:35.697Z,12.40
2023-05-14T19:30:27.456Z,12.40
2023-05-14T19:32:27.499Z,12.30
2023-05-14T19:34:29.605Z,12.30
2023-05-14T19:35:31.014Z,12.30
2023-05-14T19:38:27.671Z,12.20
2023-05-14T19:40:27.413Z,12.20
2023-05-14T19:42:27.107Z,12.10
2023-05-14T19:44:29.680Z,12.00
2023-05-14T19:46:27.075Z,12.00
2023-05-14T19:47:33.059Z,12.00
2023-05-14T19:50:35.585Z,11.90
2023-05-14T19:51:35.838Z,11.90
2023-05-14T19:54:32.725Z,11.90
2023-05-14T19:56:27.460Z,11.90
2023-05-14T19:58:27.121Z,11.70
2023-05-14T20:00:30.855Z,11.60
2023-05-14T20:02:33.021Z,11.60
2023-05-14T20:04:27.061Z,11.50
2023-05-14T20:06:27.026Z,11.50
2023-05-14T20:08:29.874Z,11.40
2023-05-14T20:10:27.286Z,11.40
2023-05-14T20:12:27.205Z,11.40
2023-05-14T20:14:32.871Z,11.40
2023-05-14T20:16:27.124Z,11.40
2023-05-14T20:18:27.037Z,11.40
2023-05-14T20:20:27.902Z,11.40
2023-05-14T20:22:27.057Z,11.30
2023-05-14T20:24:29.927Z,11.30
2023-05-14T20:26:27.104Z,11.30
2023-05-14T20:28:29.917Z,11.30
2023-05-14T20:30:33.258Z,11.30
2023-05-14T20:32:35.901Z,11.30
2023-05-14T20:34:30.058Z,11.30
2023-05-14T20:36:41.392Z,11.30
2023-05-14T20:38:27.120Z,11.20
2023-05-14T20:40:36.203Z,11.20
2023-05-14T20:42:30.285Z,11.20
2023-05-14T20:44:27.036Z,11.20
2023-05-14T20:46:32.949Z,11.20
2023-05-14T20:48:32.927Z,11.20
2023-05-14T20:50:27.142Z,11.20
2023-05-14T20:52:38.814Z,11.20
2023-05-14T20:54:27.147Z,11.20
2023-05-14T20:56:29.622Z,11.20
2023-05-14T20:58:27.088Z,11.10
2023-05-14T21:00:27.122Z,11.20
2023-05-14T21:02:27.564Z,11.20
2023-05-14T21:04:29.723Z,11.20
2023-05-14T21:06:32.852Z,11.20
2023-05-14T21:08:27.051Z,11.20
2023-05-14T21:10:29.880Z,11.20
2023-05-14T21:12:27.534Z,11.20
2023-05-14T21:14:27.064Z,11.20
2023-05-14T21:16:27.260Z,11.20
2023-05-14T21:18:30.346Z,11.10
2023-05-14T21:20:27.562Z,11.10
2023-05-14T21:22:33.169Z,11.10
2023-05-14T21:24:29.581Z,11.00
2023-05-14T21:26:30.814Z,11.00
2023-05-14T21:28:32.907Z,11.00
2023-05-14T21:30:27.153Z,11.00
2023-05-14T21:32:29.791Z,10.90
2023-05-14T21:34:32.952Z,10.80
2023-05-14T21:36:29.959Z,10.80
2023-05-14T21:38:27.161Z,10.70
2023-05-14T21:40:32.878Z,10.70
2023-05-14T21:42:32.881Z,10.60
2023-05-14T21:44:27.440Z,10.50
2023-05-14T21:46:27.096Z,10.40
2023-05-14T21:48:27.168Z,10.20
2023-05-14T21:50:27.224Z,10.20
2023-05-14T21:52:27.194Z,10.10
2023-05-14T21:54:33.103Z,10.00
2023-05-14T21:56:27.140Z,10.00
2023-05-14T21:58:36.276Z,10.00
2023-05-14T22:00:27.159Z,9.80
2023-05-14T22:02:29.760Z,9.70
2023-05-14T22:04:27.129Z,9.70
2023-05-14T22:06:27.095Z,9.70
2023-05-14T22:08:27.057Z,9.70
2023-05-14T22:10:27.150Z,9.90
2023-05-14T22:12:27.189Z,9.90
2023-05-14T22:14:27.149Z,9.80
2023-05-14T22:16:27.169Z,9.70
2023-05-14T22:18:27.199Z,9.70
2023-05-14T22:20:27.100Z,9.80
2023-05-14T22:22:27.517Z,9.80
2023-05-14T22:24:27.140Z,9.70
2023-05-14T22:26:27.174Z,9.60
2023-05-14T22:28:27.460Z,9.60
2023-05-14T22:30:27.265Z,9.60
2023-05-14T22:32:27.611Z,9.50
2023-05-14T22:34:27.149Z,9.40
2023-05-14T22:36:27.082Z,9.40
2023-05-14T22:38:27.330Z,9.40
2023-05-14T22:40:27.111Z,9.10
2023-05-14T22:42:27.594Z,9.00
2023-05-14T22:44:29.157Z,8.90
2023-05-14T22:46:32.707Z,8.90
2023-05-14T22:48:27.125Z,9.00
2023-05-14T22:50:27.235Z,8.80
2023-05-14T22:52:27.717Z,8.80
2023-05-14T22:54:27.330Z,8.70
2023-05-14T22:56:27.072Z,8.70
2023-05-14T22:58:27.123Z,8.60
2023-05-14T23:00:33.528Z,8.50
2023-05-14T23:02:27.144Z,8.60
2023-05-14T23:04:27.172Z,8.60
2023-05-14T23:06:27.155Z,8.70
2023-05-14T23:08:27.149Z,8.70
2023-05-14T23:11:27.123Z,8.70
2023-05-14T23:12:30.150Z,8.70
2023-05-14T23:15:27.494Z,8.70
2023-05-14T23:17:27.198Z,8.70
2023-05-14T23:19:27.192Z,8.70
2023-05-14T23:21:27.226Z,8.80
2023-05-14T23:23:27.567Z,8.80
2023-05-14T23:25:27.388Z,8.80
2023-05-14T23:27:27.235Z,8.70
2023-05-14T23:29:27.236Z,8.70
2023-05-14T23:31:27.201Z,8.80
2023-05-14T23:33:27.183Z,8.80
2023-05-14T23:35:27.458Z,8.80
2023-05-14T23:37:27.248Z,8.80
2023-05-14T23:39:27.098Z,8.80
2023-05-14T23:41:27.181Z,8.80
2023-05-14T23:43:29.880Z,8.80
2023-05-14T23:45:27.384Z,8.80
2023-05-14T23:47:27.174Z,8.80
2023-05-14T23:49:27.186Z,8.80
2023-05-14T23:51:27.255Z,8.70
2023-05-14T23:53:27.244Z,8.60
2023-05-14T23:55:27.467Z,8.60
2023-05-14T23:57:27.419Z,8.60
2023-05-14T23:59:27.117Z,8.60
